Time;durP1;ratioP1;P1;durP2;ratioP2;P2;SDS_P1;SDS_P2;PMS_P1;PMS_P2;Temp;Humidity;BMP_temperature;BMP_pressure;BME280_temperature;BME280_humidity;BME280_pressure;Samples;Min_cycle;Max_cycle;Signal;HPM_P1;HPM_P2
2023/01/18 00:01:13;;;;;;;6.45;3.35;;;;;;;-1.32;100.00;98979.13;4934876;29;20055;-81
2023/01/18 00:03:41;;;;;;;3.80;2.88;;;;;;;-1.32;100.00;98983.41;4923855;28;20425;-80
2023/01/18 00:06:11;;;;;;;6.22;3.22;;;;;;;-1.32;100.00;98983.41;4939219;29;20436;-81
2023/01/18 00:08:41;;;;;;;;;;;;;;;-1.34;100.00;98985.09;4935466;28;20052;-81
2023/01/18 00:11:14;;;;;;;3.92;3.00;;;;;;;-1.35;100.00;98981.66;4935840;29;19922;-80
2023/01/18 00:13:42;;;;;;;3.80;2.83;;;;;;;-1.36;100.00;98987.66;4928435;29;20043;-81
2023/01/18 00:16:12;;;;;;;6.13;2.90;;;;;;;-1.37;100.00;98983.31;4939429;29;20051;-81
2023/01/18 00:18:40;;;;;;;4.05;3.42;;;;;;;-1.38;100.00;98981.56;4922982;28;20047;-81
2023/01/18 00:21:10;;;;;;;7.13;3.20;;;;;;;-1.38;100.00;98991.91;4934243;28;20062;-80
2023/01/18 00:23:38;;;;;;;4.18;3.00;;;;;;;-1.38;100.00;98987.63;4941581;28;20424;-80
2023/01/18 00:26:08;;;;;;;5.40;3.33;;;;;;;-1.39;100.00;98992.75;4934640;28;20051;-81
2023/01/18 00:28:36;;;;;;;5.90;3.57;;;;;;;-1.39;100.00;98995.34;4940517;28;20051;-80
2023/01/18 00:31:18;;;;;;;9.88;3.65;;;;;;;-1.38;100.00;98994.50;4921235;29;20298;-80
2023/01/18 00:33:47;;;;;;;5.20;3.80;;;;;;;-1.39;100.00;98987.59;4945428;29;20524;-81
2023/01/18 00:36:16;;;;;;;6.40;3.47;;;;;;;-1.39;100.00;98988.47;4905002;29;20059;-81
2023/01/18 00:38:50;;;;;;;3.53;3.08;;;;;;;-1.39;100.00;98992.75;4934963;29;20051;-80
2023/01/18 00:41:19;;;;;;;5.60;3.10;;;;;;;-1.39;100.00;98995.34;4954163;29;20050;-80
2023/01/18 00:43:46;;;;;;;5.22;3.08;;;;;;;-1.41;100.00;98990.13;4924040;28;20070;-80
2023/01/18 00:46:22;;;;;;;3.72;3.25;;;;;;;-1.41;100.00;98986.69;4948971;29;20047;-80
2023/01/18 00:48:51;;;;;;;4.13;3.28;;;;;;;-1.42;100.00;98991.00;4943353;29;20062;-80
2023/01/18 00:51:21;;;;;;;3.65;3.35;;;;;;;-1.43;100.00;98997.00;4900243;29;20523;-81
2023/01/18 00:53:49;;;;;;;5.45;3.25;;;;;;;-1.44;100.00;98994.38;4916491;29;20050;-81
2023/01/18 00:56:20;;;;;;;3.50;3.20;;;;;;;-1.45;100.00;98992.63;4953186;29;20055;-81
2023/01/18 00:58:48;;;;;;;5.38;3.40;;;;;;;-1.44;100.00;98999.53;4911034;28;20051;-81
2023/01/18 01:01:15;;;;;;;5.25;3.58;;;;;;;-1.45;100.00;98998.66;4932302;29;20069;-81
2023/01/18 01:06:43;;;;;;;7.03;3.63;;;;;;;-1.50;100.00;98999.41;4907917;29;20043;-81
2023/01/18 01:09:19;;;;;;;;;;;;;;;-1.51;100.00;98992.47;4921682;29;20040;-81
2023/01/18 01:26:07;;;;;;;6.25;3.58;;;;;;;-1.54;100.00;98992.44;4937090;29;20449;-81
2023/01/18 01:28:39;;;;;;;6.20;3.85;;;;;;;-1.56;100.00;98987.22;4940655;29;20052;-82
2023/01/18 01:31:09;;;;;;;10.38;4.47;;;;;;;-1.55;100.00;98993.25;4958536;28;20051;-81
2023/01/18 01:33:37;;;;;;;7.57;4.20;;;;;;;-1.55;100.00;98995.84;4949457;28;20050;-81
2023/01/18 01:36:08;;;;;;;7.18;4.00;;;;;;;-1.56;100.00;98989.81;4948332;28;20078;-81
2023/01/18 01:38:36;;;;;;;7.28;4.13;;;;;;;-1.57;100.00;99004.44;4934762;28;20051;-81
2023/01/18 01:41:06;;;;;;;5.30;3.95;;;;;;;-1.55;100.00;98994.16;4947079;29;20057;-80
2023/01/18 01:43:45;;;;;;;7.70;4.18;;;;;;;-1.55;100.00;99001.91;4945060;28;20421;-81
2023/01/18 01:46:34;;;;;;;5.13;4.22;;;;;;;-1.54;100.00;99003.63;4953288;28;20051;-81
2023/01/18 01:49:07;;;;;;;4.32;3.65;;;;;;;-1.53;100.00;99009.66;4953080;28;20136;-82
2023/01/18 01:51:38;;;;;;;8.32;3.90;;;;;;;-1.54;100.00;99007.94;4942589;28;20408;-81
2023/01/18 01:54:20;;;;;;;12.52;4.55;;;;;;;-1.55;100.00;99008.75;4954826;28;20030;-82
2023/01/18 01:56:55;;;;;;;10.10;4.00;;;;;;;-1.55;100.00;99019.09;4968437;28;20127;-81
2023/01/18 01:59:23;;;;;;;11.52;4.60;;;;;;;-1.58;100.00;99018.19;4951674;28;20066;-81
2023/01/18 02:01:50;;;;;;;8.00;4.38;;;;;;;-1.57;100.00;99012.19;4920424;28;20058;-81
2023/01/18 02:04:18;;;;;;;4.40;3.95;;;;;;;-1.57;100.00;99009.63;4937834;28;20098;-81
2023/01/18 02:06:45;;;;;;;6.13;4.55;;;;;;;-1.57;100.00;99009.63;4937128;28;20053;-80
2023/01/18 02:09:21;;;;;;;5.28;4.20;;;;;;;-1.57;100.00;99013.88;4945525;28;20051;-81
2023/01/18 02:11:52;;;;;;;4.78;4.07;;;;;;;-1.56;100.00;99013.06;4948293;29;20634;-81
2023/01/18 02:14:23;;;;;;;5.32;4.50;;;;;;;-1.56;100.00;99013.06;4946619;28;20046;-81
2023/01/18 02:17:03;;;;;;;8.43;4.47;;;;;;;-1.58;100.00;99013.03;4927834;28;20047;-81
2023/01/18 02:19:56;;;;;;;6.15;4.03;;;;;;;-1.60;100.00;99019.00;4950284;28;20055;-82
2023/01/18 02:23:00;;;;;;;5.45;4.35;;;;;;;-1.62;100.00;99024.13;4954357;28;20115;-80
2023/01/18 02:25:59;;;;;;;7.18;4.13;;;;;;;-1.62;100.00;99020.69;4936644;29;20044;-81
2023/01/18 02:28:36;;;;;;;6.32;3.90;;;;;;;-1.62;100.00;99028.44;4969788;28;20051;-81
2023/01/18 02:31:14;;;;;;;5.72;4.55;;;;;;;-1.64;100.00;99025.81;4957095;28;20070;-81
2023/01/18 02:34:19;;;;;;;6.72;4.40;;;;;;;-1.65;100.00;99031.78;4947167;28;20047;-81
2023/01/18 02:37:15;;;;;;;5.43;4.18;;;;;;;-1.65;100.00;99030.94;4942116;28;20052;-81
2023/01/18 02:40:07;;;;;;;8.40;4.68;;;;;;;-1.66;100.00;99035.22;4905966;29;20489;-80
2023/01/18 02:48:21;;;;;;;8.00;4.30;;;;;;;-1.66;100.00;99040.41;4963814;28;20500;-80
2023/01/18 02:50:50;;;;;;;7.55;5.13;;;;;;;-1.68;100.00;99034.31;4962215;28;20079;-80
2023/01/18 02:53:17;;;;;;;7.35;4.70;;;;;;;-1.69;100.00;99037.72;4968161;28;20069;-80
2023/01/18 02:56:07;;;;;;;7.07;4.88;;;;;;;-1.70;100.00;99040.28;4906654;29;20047;-80
2023/01/18 02:58:44;;;;;;;10.45;5.60;;;;;;;-1.72;100.00;99039.38;4969481;28;20039;-79
2023/01/18 03:01:25;;;;;;;6.32;5.45;;;;;;;-1.74;100.00;99047.06;4959813;28;20038;-79
2023/01/18 03:03:58;;;;;;;8.70;5.03;;;;;;;-1.75;100.00;99044.47;4959827;28;20054;-79
2023/01/18 03:06:28;;;;;;;8.85;4.97;;;;;;;-1.75;100.00;99054.81;4966914;28;20050;-80
2023/01/18 03:08:57;;;;;;;9.88;5.15;;;;;;;-1.77;100.00;99040.13;4961669;28;20051;-81
2023/01/18 03:11:34;;;;;;;6.22;5.15;;;;;;;-1.76;100.00;99051.34;4923998;28;20035;-79
2023/01/18 03:14:40;;;;;;;7.55;5.65;;;;;;;-1.78;100.00;99053.00;4944087;28;20043;-82
2023/01/18 03:17:24;;;;;;;8.43;5.82;;;;;;;-1.79;100.00;99054.72;4971957;28;20047;-82
2023/01/18 03:20:04;;;;;;;10.73;5.75;;;;;;;-1.78;100.00;99053.00;4924856;28;20540;-82
2023/01/18 03:25:37;;;;;;;10.68;6.38;;;;;;;-1.82;100.00;99040.88;4923583;28;20313;-81
2023/01/18 03:33:50;;;;;;;10.32;6.50;;;;;;;-1.86;100.00;99041.63;4972821;28;20053;-81
2023/01/18 03:36:40;;;;;;;10.38;6.78;;;;;;;-1.89;100.00;99036.38;4948148;28;20054;-81
2023/01/18 03:39:18;;;;;;;9.27;6.13;;;;;;;-1.89;100.00;99036.38;4965864;28;20050;-81
2023/01/18 03:41:52;;;;;;;9.70;6.05;;;;;;;-1.91;100.00;99044.13;4940794;28;20062;-81
2023/01/18 03:44:34;;;;;;;13.05;7.68;;;;;;;-1.92;100.00;99046.66;4944464;28;20500;-81
2023/01/18 03:47:04;;;;;;;9.52;6.10;;;;;;;-1.93;100.00;99052.66;4965393;28;20047;-81
2023/01/18 03:49:33;;;;;;;9.63;6.32;;;;;;;-1.93;100.00;99044.91;4950477;28;20070;-81
2023/01/18 03:52:16;;;;;;;11.70;6.13;;;;;;;-1.94;100.00;99048.34;4941934;28;20039;-81
2023/01/18 03:55:08;;;;;;;9.38;6.90;;;;;;;-1.94;100.00;99058.66;4950733;28;20051;-81
2023/01/18 03:57:48;;;;;;;8.15;6.05;;;;;;;-1.94;100.00;99062.09;4909860;28;20047;-82
2023/01/18 04:00:17;;;;;;;9.98;5.82;;;;;;;-1.94;100.00;99053.50;4956122;28;20563;-82
2023/01/18 04:02:47;;;;;;;9.18;6.30;;;;;;;-1.93;100.00;99050.94;4935543;29;20062;-81
2023/01/18 04:05:16;;;;;;;8.75;6.13;;;;;;;-1.93;100.00;99056.09;4932968;28;20043;-80
2023/01/18 04:07:43;;;;;;;7.95;6.07;;;;;;;-1.93;100.00;99053.50;4933100;28;20046;-80
2023/01/18 04:10:11;;;;;;;9.20;6.25;;;;;;;-1.92;100.00;99051.81;4922734;28;20078;-80
2023/01/18 04:12:38;;;;;;;7.57;6.05;;;;;;;-1.92;100.00;99049.25;4937004;28;20054;-79
2023/01/18 04:15:06;;;;;;;10.57;6.07;;;;;;;-1.91;100.00;99050.97;4945775;28;20035;-80
2023/01/18 04:17:33;;;;;;;8.27;6.75;;;;;;;-1.92;100.00;99050.09;4954929;28;20408;-79
2023/01/18 04:20:02;;;;;;;7.72;6.47;;;;;;;-1.91;100.00;99048.38;4927069;28;20050;-80
2023/01/18 04:22:29;;;;;;;10.15;6.85;;;;;;;-1.92;100.00;99052.69;4971504;28;20042;-79
2023/01/18 04:24:57;;;;;;;9.07;6.55;;;;;;;-1.92;100.00;99051.81;4935929;28;20424;-80
2023/01/18 04:27:24;;;;;;;12.18;7.28;;;;;;;-1.92;100.00;99059.56;4951944;28;20046;-81
2023/01/18 04:29:51;;;;;;;8.55;7.15;;;;;;;-1.96;100.00;99054.31;4903515;28;20094;-81
2023/01/18 04:32:19;;;;;;;12.88;6.88;;;;;;;-1.97;100.00;99052.59;4945276;28;20051;-81
2023/01/18 04:34:46;;;;;;;10.88;6.70;;;;;;;-1.97;100.00;99052.59;4928729;28;20054;-82
2023/01/18 04:37:13;;;;;;;8.88;6.63;;;;;;;-1.97;100.00;99055.16;4931409;29;20485;-82
2023/01/18 04:39:41;;;;;;;12.80;7.65;;;;;;;-1.97;100.00;99056.84;4929196;28;20059;-82
2023/01/18 04:42:08;;;;;;;9.80;6.68;;;;;;;-1.95;100.00;99062.94;4933026;29;20043;-82
2023/01/18 04:44:38;;;;;;;11.35;7.20;;;;;;;-1.93;100.00;99062.97;4928909;28;20055;-81
2023/01/18 04:47:05;;;;;;;9.25;7.18;;;;;;;-1.92;100.00;99065.59;4947971;28;20057;-80
2023/01/18 04:49:32;;;;;;;14.45;6.32;;;;;;;-1.92;100.00;99060.44;4948692;29;20512;-81
2023/01/18 04:52:00;;;;;;;11.07;7.53;;;;;;;-1.92;100.00;99067.31;4939297;28;20547;-81
2023/01/18 04:54:28;;;;;;;18.50;8.75;;;;;;;-1.93;100.00;99066.41;4948915;28;20108;-80
2023/01/18 04:56:55;;;;;;;11.43;7.28;;;;;;;-1.93;100.00;99066.41;4958766;28;20050;-80
2023/01/18 04:59:22;;;;;;;8.95;7.05;;;;;;;-1.91;100.00;99062.19;4934585;29;20393;-80
2023/01/18 05:01:51;;;;;;;9.52;6.28;;;;;;;-1.90;100.00;99065.63;4892709;28;20047;-80
2023/01/18 05:04:18;;;;;;;13.25;7.40;;;;;;;-1.90;100.00;99063.91;4946718;28;20066;-81
2023/01/18 05:06:49;;;;;;;8.93;6.40;;;;;;;-1.87;100.00;99065.69;4948102;28;20046;-80
2023/01/18 05:09:16;;;;;;;;;;;;;;;-1.86;100.00;99062.28;4916114;28;20057;-80
2023/01/18 05:11:43;;;;;;;9.52;6.88;;;;;;;-1.85;100.00;99072.66;4940154;28;19922;-80
2023/01/18 05:14:10;;;;;;;11.65;6.55;;;;;;;-1.83;100.00;99083.03;4943968;28;20515;-80
2023/01/18 05:16:38;;;;;;;11.88;8.13;;;;;;;-1.82;100.00;99084.75;4931952;28;20062;-80
2023/01/18 05:19:05;;;;;;;9.98;7.75;;;;;;;-1.81;100.00;99092.56;4967673;28;20062;-80
2023/01/18 05:21:32;;;;;;;13.55;7.82;;;;;;;-1.81;100.00;99087.38;4953865;28;20043;-82
2023/01/18 05:24:00;;;;;;;11.23;7.55;;;;;;;-1.80;100.00;99088.25;4956419;28;20051;-80
2023/01/18 05:26:27;;;;;;;12.80;7.63;;;;;;;-1.81;100.00;99092.56;4958017;28;20041;-80
2023/01/18 05:28:57;;;;;;;12.18;7.63;;;;;;;-1.80;100.00;99096.00;4947441;28;20169;-82
2023/01/18 05:31:25;;;;;;;8.93;6.97;;;;;;;-1.80;100.00;99103.75;4907866;28;20062;-81
2023/01/18 05:33:54;;;;;;;10.80;7.60;;;;;;;-1.81;100.00;99100.28;4967677;28;20046;-82
2023/01/18 05:36:22;;;;;;;10.75;7.63;;;;;;;-1.81;100.00;99109.75;4944336;28;20043;-81
2023/01/18 05:38:51;;;;;;;16.75;7.72;;;;;;;-1.81;100.00;99110.63;4942415;28;20065;-80
2023/01/18 05:41:19;;;;;;;16.17;8.60;;;;;;;-1.82;100.00;99115.75;4939048;29;20066;-81
2023/01/18 05:43:47;;;;;;;10.43;8.15;;;;;;;-1.84;100.00;99115.69;4950150;28;20054;-80
2023/01/18 05:46:14;;;;;;;13.13;8.93;;;;;;;-1.85;100.00;99110.50;4946229;28;20055;-82
2023/01/18 05:48:42;;;;;;;9.77;8.23;;;;;;;-1.85;100.00;99110.50;4924566;28;20381;-81
2023/01/18 05:51:10;;;;;;;10.90;8.07;;;;;;;-1.88;100.00;99121.63;4939715;28;20050;-80
2023/01/18 05:53:38;;;;;;;11.43;8.85;;;;;;;-1.90;100.00;99125.03;4937641;28;20058;-81
2023/01/18 05:56:07;;;;;;;11.52;8.95;;;;;;;-1.91;100.00;99131.00;4940132;28;20058;-81
2023/01/18 05:58:34;;;;;;;12.63;8.73;;;;;;;-1.93;100.00;99137.84;4951675;28;20050;-81
2023/01/18 06:01:02;;;;;;;15.07;9.57;;;;;;;-1.93;100.00;99141.28;4915464;29;20058;-81
2023/01/18 06:03:29;;;;;;;13.20;9.40;;;;;;;-1.94;100.00;99133.53;4912485;28;20047;-82
2023/01/18 06:05:58;;;;;;;12.52;8.38;;;;;;;-1.93;100.00;99141.28;4932711;28;20057;-82
2023/01/18 06:08:25;;;;;;;10.38;9.02;;;;;;;-1.96;100.00;99143.81;4954327;28;20051;-82
2023/01/18 06:10:57;;;;;;;16.08;9.85;;;;;;;-1.98;100.00;99146.34;4929045;28;20058;-81
2023/01/18 06:13:26;;;;;;;12.15;9.68;;;;;;;-1.98;100.00;99148.91;4954531;28;20047;-81
2023/01/18 06:15:58;;;;;;;13.40;9.23;;;;;;;-1.98;100.00;99158.38;4956617;28;20046;-81
2023/01/18 06:18:29;;;;;;;15.93;11.32;;;;;;;-1.99;100.00;99156.63;4929365;28;20054;-81
2023/01/18 06:21:00;;;;;;;13.70;10.13;;;;;;;-2.01;100.00;99156.56;4943628;28;20062;-81
2023/01/18 06:23:30;;;;;;;16.60;9.70;;;;;;;-2.01;100.00;99163.47;4947196;28;20058;-81
2023/01/18 06:25:58;;;;;;;11.23;9.18;;;;;;;-2.03;100.00;99163.41;4925110;28;20055;-81
2023/01/18 06:28:25;;;;;;;13.45;8.73;;;;;;;-2.05;100.00;99165.06;4946128;28;20519;-80
2023/01/18 06:30:56;;;;;;;13.45;9.07;;;;;;;-2.06;100.00;99163.34;4951090;28;20035;-81
2023/01/18 06:33:23;;;;;;;14.73;9.63;;;;;;;-2.05;100.00;99164.22;4941234;29;20102;-81
2023/01/18 06:35:51;;;;;;;13.50;9.85;;;;;;;-2.06;100.00;99160.78;4933575;28;20138;-80
2023/01/18 06:38:19;;;;;;;11.82;8.77;;;;;;;-2.05;100.00;99172.81;4930747;28;20054;-80
2023/01/18 06:40:46;;;;;;;11.60;9.18;;;;;;;-2.04;100.00;99176.28;4953913;28;20058;-80
2023/01/18 06:43:14;;;;;;;11.48;9.18;;;;;;;-2.06;100.00;99173.66;4941723;28;20051;-80
2023/01/18 06:45:42;;;;;;;17.65;9.57;;;;;;;-2.07;100.00;99171.91;4934807;28;20127;-81
2023/01/18 06:48:09;;;;;;;16.92;9.27;;;;;;;-2.07;100.00;99174.50;4929373;28;20055;-81
2023/01/18 06:50:37;;;;;;;16.52;9.82;;;;;;;-2.08;100.00;99175.34;4917925;28;20733;-81
2023/01/18 06:53:04;;;;;;;13.48;9.38;;;;;;;-2.06;100.00;99177.94;4948904;28;20054;-81
2023/01/18 06:55:33;;;;;;;12.95;9.13;;;;;;;-2.06;100.00;99188.25;4940817;28;21382;-81
2023/01/18 06:58:01;;;;;;;13.32;9.43;;;;;;;-2.07;100.00;99187.41;4921999;28;20043;-81
2023/01/18 07:00:29;;;;;;;11.10;8.93;;;;;;;-2.06;100.00;99196.00;4931019;28;20058;-81
2023/01/18 07:02:57;;;;;;;15.07;9.15;;;;;;;-2.07;100.00;99192.56;4935333;28;20063;-82
2023/01/18 07:05:24;;;;;;;10.45;9.23;;;;;;;-2.07;100.00;99200.31;4920527;29;20051;-81
2023/01/18 07:07:52;;;;;;;15.02;9.15;;;;;;;-2.06;100.00;99199.47;4917474;28;20067;-81
2023/01/18 07:10:19;;;;;;;12.85;8.82;;;;;;;-2.06;100.00;99217.56;4965144;28;20038;-81
2023/01/18 07:12:47;;;;;;;17.90;9.77;;;;;;;-2.05;100.00;99213.25;4928888;28;20051;-81
2023/01/18 07:15:16;;;;;;;13.68;8.80;;;;;;;-2.05;100.00;99229.59;4959592;28;20043;-81
2023/01/18 07:17:49;;;;;;;15.52;9.23;;;;;;;-2.03;100.00;99222.78;4956499;28;20035;-81
2023/01/18 07:20:18;;;;;;;11.15;8.65;;;;;;;-2.02;100.00;99221.97;4939276;28;20785;-83
2023/01/18 07:22:51;;;;;;;12.73;8.98;;;;;;;-2.01;100.00;99228.00;4937104;28;20050;-83
2023/01/18 07:25:19;;;;;;;13.35;9.30;;;;;;;-2.02;100.00;99227.13;4947265;28;20061;-81
2023/01/18 07:27:47;;;;;;;11.55;8.65;;;;;;;-2.00;100.00;99232.34;4938341;28;20498;-83
2023/01/18 07:30:15;;;;;;;13.65;8.80;;;;;;;-1.99;100.00;99229.78;4923251;28;20052;-82
2023/01/18 07:32:49;;;;;;;12.43;8.77;;;;;;;-1.98;100.00;99226.38;4937762;28;20051;-82
2023/01/18 07:35:20;;;;;;;9.63;7.70;;;;;;;-1.96;100.00;99227.28;4933286;28;20398;-82
2023/01/18 07:37:51;;;;;;;11.18;8.52;;;;;;;-1.94;100.00;99235.06;4911533;28;20948;-82
2023/01/18 07:40:20;;;;;;;11.93;8.55;;;;;;;-1.94;100.00;99224.75;4946661;29;20051;-82
2023/01/18 07:42:54;;;;;;;14.80;8.27;;;;;;;-1.92;100.00;99233.41;4920233;28;20059;-82
2023/01/18 07:45:23;;;;;;;11.43;8.43;;;;;;;-1.90;100.00;99236.91;4935134;28;20058;-82
2023/01/18 07:47:52;;;;;;;15.73;8.00;;;;;;;-1.89;100.00;99236.09;4925423;29;20035;-81
2023/01/18 07:50:21;;;;;;;10.60;8.13;;;;;;;-1.88;100.00;99236.94;4934934;28;20043;-82
2023/01/18 07:52:49;;;;;;;14.07;8.45;;;;;;;-1.86;100.00;99246.47;4900211;28;20051;-83
2023/01/18 07:55:16;;;;;;;11.75;8.68;;;;;;;-1.86;100.00;99245.63;4932680;29;20067;-83
2023/01/18 07:57:43;;;;;;;12.73;7.75;;;;;;;-1.84;100.00;99255.13;4917795;28;20047;-82
2023/01/18 08:00:12;;;;;;;14.40;8.98;;;;;;;-1.83;100.00;99259.47;4934563;28;20051;-82
2023/01/18 08:02:40;;;;;;;12.38;8.80;;;;;;;-1.81;100.00;99255.22;4956880;28;20055;-82
2023/01/18 08:05:09;;;;;;;11.82;7.90;;;;;;;-1.79;100.00;99258.72;4930562;28;20051;-81
2023/01/18 08:07:37;;;;;;;14.07;8.95;;;;;;;-1.76;100.00;99260.50;4928838;28;20043;-81
2023/01/18 08:10:04;;;;;;;10.48;7.60;;;;;;;-1.74;100.00;99261.41;4920964;29;20056;-82
2023/01/18 08:12:31;;;;;;;10.95;7.60;;;;;;;-1.72;100.00;99264.94;4938898;28;20047;-82
2023/01/18 08:15:00;;;;;;;10.50;6.97;;;;;;;-1.70;100.00;99272.72;4917215;29;20051;-82
2023/01/18 08:17:28;;;;;;;12.23;7.30;;;;;;;-1.66;100.00;99280.59;4927538;29;20046;-81
2023/01/18 08:19:56;;;;;;;11.82;6.68;;;;;;;-1.64;100.00;99284.09;4930852;28;20081;-82
2023/01/18 08:22:23;;;;;;;8.85;6.32;;;;;;;-1.61;100.00;99288.47;4921167;29;20054;-82
2023/01/18 08:24:50;;;;;;;11.05;6.47;;;;;;;-1.58;100.00;99291.13;4895586;29;20054;-82
2023/01/18 08:27:18;;;;;;;12.23;6.93;;;;;;;-1.57;100.00;99291.19;4939722;28;20047;-82
2023/01/18 08:29:47;;;;;;;12.23;7.72;;;;;;;-1.54;100.00;99298.13;4933678;28;20066;-82
2023/01/18 08:32:14;;;;;;;8.85;6.50;;;;;;;-1.52;100.00;99296.47;4939465;28;20047;-82
2023/01/18 08:34:41;;;;;;;10.88;6.63;;;;;;;-1.50;100.00;99296.50;4950535;28;20062;-82
2023/01/18 08:37:10;;;;;;;10.15;6.78;;;;;;;-1.47;100.00;99299.19;4944005;28;20153;-83
2023/01/18 08:39:37;;;;;;;10.10;6.55;;;;;;;-1.45;100.00;99302.69;4929646;28;20070;-82
2023/01/18 08:42:05;;;;;;;12.30;6.70;;;;;;;-1.43;100.00;99303.59;4956825;28;20063;-82
2023/01/18 08:44:34;;;;;;;10.07;6.60;;;;;;;-1.38;100.00;99312.31;4918693;28;20059;-82
2023/01/18 08:47:02;;;;;;;9.05;6.00;;;;;;;-1.35;100.00;99315.00;4929259;28;20039;-81
2023/01/18 08:49:31;;;;;;;8.77;6.32;;;;;;;-1.30;100.00;99317.72;4923202;29;20048;-82
2023/01/18 08:51:58;;;;;;;9.43;5.78;;;;;;;-1.26;100.00;99325.56;4937315;28;20044;-82
2023/01/18 08:54:27;;;;;;;8.63;6.57;;;;;;;-1.22;100.00;99329.13;4950729;28;20409;-83
2023/01/18 08:56:54;;;;;;;9.93;6.45;;;;;;;-1.18;100.00;99328.34;4912834;28;20069;-81
2023/01/18 08:59:22;;;;;;;10.63;6.13;;;;;;;-1.11;100.00;99334.56;4961821;28;20047;-82
2023/01/18 09:01:50;;;;;;;9.30;5.68;;;;;;;-1.08;100.00;99332.06;4945883;28;20799;-81
2023/01/18 09:04:17;;;;;;;8.75;5.72;;;;;;;-1.04;100.00;99336.47;4930049;28;20062;-82
2023/01/18 09:06:45;;;;;;;6.93;6.13;;;;;;;-0.99;100.00;99343.50;4913410;28;20059;-81
2023/01/18 09:09:13;;;;;;;7.35;6.10;;;;;;;-0.94;100.00;99335.88;4952435;28;20039;-81
2023/01/18 09:11:40;;;;;;;9.05;5.55;;;;;;;-0.90;100.00;99331.66;4880678;28;20427;-80
2023/01/18 09:14:08;;;;;;;9.07;5.78;;;;;;;-0.85;100.00;99338.69;4961399;28;20047;-82
2023/01/18 09:16:35;;;;;;;8.73;5.70;;;;;;;-0.80;100.00;99339.66;4941084;28;20527;-81
2023/01/18 09:19:05;;;;;;;8.70;5.95;;;;;;;-0.75;100.00;99349.28;4953363;28;20062;-82
2023/01/18 09:21:33;;;;;;;12.73;5.72;;;;;;;-0.70;100.00;99345.97;4942655;28;20428;-82
2023/01/18 09:24:00;;;;;;;9.45;5.43;;;;;;;-0.66;100.00;99360.72;4914610;28;20066;-82
2023/01/18 09:26:29;;;;;;;8.93;6.45;;;;;;;-0.62;100.00;99356.50;4904907;29;20477;-80
2023/01/18 09:28:56;;;;;;;8.73;5.95;;;;;;;-0.56;100.00;99363.53;4934144;28;20055;-81
2023/01/18 09:31:27;;;;;;;9.18;6.53;;;;;;;-0.53;100.00;99361.88;4943582;29;20050;-81
2023/01/18 09:33:55;;;;;;;7.90;6.30;;;;;;;-0.50;100.00;99355.91;4929123;28;20493;-80
2023/01/18 09:36:39;;;;;;;8.55;6.18;;;;;;;-0.45;100.00;99354.31;4948586;28;20055;-80
2023/01/18 09:39:07;;;;;;;8.30;6.25;;;;;;;-0.43;100.00;99369.00;4944416;28;20054;-81
2023/01/18 09:41:41;;;;;;;6.80;5.35;;;;;;;-0.37;100.00;99351.88;4940138;28;20050;-80
2023/01/18 09:44:20;;;;;;;9.52;5.90;;;;;;;-0.33;100.00;99364.06;4951977;28;20483;-80
2023/01/18 09:46:52;;;;;;;8.27;6.22;;;;;;;-0.29;100.00;99358.97;4944187;28;20066;-79
2023/01/18 09:49:30;;;;;;;7.95;5.22;;;;;;;-0.24;100.00;99356.50;4950810;28;20039;-83
2023/01/18 09:52:27;;;;;;;9.50;6.45;;;;;;;-0.19;100.00;99365.22;4946344;28;20054;-78
2023/01/18 09:55:18;;;;;;;7.38;5.93;;;;;;;-0.14;100.00;99361.03;4942424;28;20054;-79
2023/01/18 09:58:08;;;;;;;6.85;5.90;;;;;;;-0.09;100.00;99364.63;4933461;28;21699;-78
2023/01/18 10:00:38;;;;;;;;;;;;;;;-0.02;100.00;99365.59;4942955;28;20062;-79
2023/01/18 10:03:47;;;;;;;9.13;6.00;;;;;;;0.02;100.00;99356.19;4934084;28;19990;-81
2023/01/18 10:06:29;;;;;;;10.50;5.95;;;;;;;0.07;100.00;99363.22;4938756;28;20305;-80
2023/01/18 10:09:03;;;;;;;6.32;5.43;;;;;;;0.11;100.00;99369.34;4948166;28;20051;-80
2023/01/18 10:12:01;;;;;;;11.23;5.50;;;;;;;0.14;100.00;99356.47;4943769;29;20055;-81
2023/01/18 10:15:01;;;;;;;9.45;6.00;;;;;;;0.19;100.00;99360.03;4911204;28;20055;-79
2023/01/18 10:17:41;;;;;;;8.98;5.72;;;;;;;0.26;100.00;99363.63;4940709;28;20050;-79
2023/01/18 10:20:19;;;;;;;7.03;5.65;;;;;;;0.29;100.00;99363.69;4937356;28;20562;-78
2023/01/18 10:22:51;;;;;;;8.75;5.47;;;;;;;0.36;100.00;99366.44;4934238;28;20679;-80
2023/01/18 10:25:53;;;;;;;11.65;6.22;;;;;;;0.45;100.00;99365.72;4918748;28;20047;-78
2023/01/18 10:28:26;;;;;;;9.63;6.45;;;;;;;0.57;100.00;99367.72;4912728;28;20069;-77
2023/01/18 10:31:30;;;;;;;7.25;5.75;;;;;;;0.64;100.00;99373.88;4931209;28;20054;-78
2023/01/18 10:34:01;;;;;;;10.57;5.82;;;;;;;0.73;100.00;99369.75;4943316;28;20045;-76
2023/01/18 10:36:37;;;;;;;;;;;;;;;0.80;100.00;99369.88;4943861;28;20051;-76
2023/01/18 10:39:34;;;;;;;7.45;5.70;;;;;;;0.87;100.00;99363.94;4951571;28;19926;-77
2023/01/18 10:42:05;;;;;;;5.75;5.00;;;;;;;0.92;100.00;99368.34;4936301;28;20051;-77
2023/01/18 10:44:32;;;;;;;6.35;5.28;;;;;;;0.97;100.00;99366.72;4901352;28;20054;-76
2023/01/18 10:47:00;;;;;;;9.02;6.63;;;;;;;1.06;100.00;99363.44;4932739;28;20066;-77
2023/01/18 10:49:39;;;;;;;20.90;8.52;;;;;;;1.13;100.00;99361.81;4951289;28;20039;-78
2023/01/18 10:52:27;;;;;;;8.63;6.00;;;;;;;1.21;100.00;99362.84;4915922;28;20161;-77
2023/01/18 10:55:01;;;;;;;7.47;5.22;;;;;;;1.27;100.00;99360.34;4945140;28;20051;-77
2023/01/18 10:57:36;;;;;;;5.50;4.72;;;;;;;1.31;100.00;99358.66;4948477;28;20047;-78
2023/01/18 11:00:11;;;;;;;7.35;5.25;;;;;;;1.35;100.00;99360.47;4930332;28;20054;-78
2023/01/18 11:02:39;;;;;;;7.10;5.30;;;;;;;1.40;100.00;99360.53;4932657;28;20051;-78
2023/01/18 11:05:32;;;;;;;9.00;5.05;;;;;;;1.42;100.00;99351.94;4947974;28;20043;-78
2023/01/18 11:08:31;;;;;;;9.40;4.70;;;;;;;1.49;100.00;99358.06;4929847;28;20062;-78
2023/01/18 11:11:07;;;;;;;8.05;5.03;;;;;;;1.54;100.00;99353.84;4946597;28;20054;-76
2023/01/18 11:13:38;;;;;;;10.00;5.38;;;;;;;1.59;100.00;99356.50;4943988;28;20072;-77
2023/01/18 11:16:09;;;;;;;7.82;4.85;;;;;;;1.61;100.00;99357.38;4926503;28;20051;-77
2023/01/18 11:18:36;;;;;;;7.93;4.97;;;;;;;1.64;100.00;99360.91;4951290;28;20042;-77
2023/01/18 11:21:09;;;;;;;8.95;4.95;;;;;;;1.68;100.00;99364.41;4956140;28;20051;-78
2023/01/18 11:23:38;;;;;;;6.35;4.57;;;;;;;1.71;100.00;99354.97;4932619;28;20058;-78
2023/01/18 11:26:14;;;;;;;9.50;5.13;;;;;;;1.75;100.00;99354.16;4945650;29;20058;-80
2023/01/18 11:28:45;;;;;;;7.60;5.03;;;;;;;1.74;100.00;99351.56;4932655;28;20508;-77
2023/01/18 11:31:16;;;;;;;9.57;4.55;;;;;;;1.75;100.00;99346.34;4931692;29;20062;-79
2023/01/18 11:33:54;;;;;;;7.00;4.47;;;;;;;1.80;100.00;99354.22;4907759;29;20050;-79
2023/01/18 11:36:41;;;;;;;6.03;5.30;;;;;;;1.81;100.00;99344.72;4951981;28;20043;-82
2023/01/18 11:39:25;;;;;;;7.93;4.80;;;;;;;1.82;100.00;99339.53;4944763;28;20043;-79
2023/01/18 11:42:24;;;;;;;6.82;4.72;;;;;;;1.84;100.00;99345.63;4955253;28;20051;-77
2023/01/18 11:45:00;;;;;;;7.93;4.93;;;;;;;1.87;100.00;99340.50;4954675;28;20050;-78
2023/01/18 11:47:45;;;;;;;7.22;4.60;;;;;;;1.91;100.00;99347.47;4923938;28;20757;-78
2023/01/18 11:50:48;;;;;;;6.40;4.20;;;;;;;1.94;100.00;99339.69;4954940;28;20050;-78
2023/01/18 11:53:34;;;;;;;6.88;4.65;;;;;;;1.99;100.00;99339.78;4954545;28;20059;-78
2023/01/18 11:56:10;;;;;;;4.88;4.07;;;;;;;2.01;100.00;99342.41;4946259;28;20043;-77
2023/01/18 11:58:39;;;;;;;5.38;4.60;;;;;;;2.04;100.00;99345.91;4950147;28;20039;-78
2023/01/18 12:01:23;;;;;;;6.30;4.68;;;;;;;2.09;100.00;99349.44;4954379;28;20058;-78
2023/01/18 12:03:57;;;;;;;8.23;4.35;;;;;;;2.11;100.00;99355.53;4927419;28;20135;-78
2023/01/18 12:06:57;;;;;;;4.25;3.78;;;;;;;2.14;100.00;99354.72;4959836;28;20493;-78
2023/01/18 12:09:38;;;;;;;11.23;4.90;;;;;;;2.14;100.00;99347.78;4948430;28;20050;-78
2023/01/18 12:12:42;;;;;;;9.10;5.05;;;;;;;2.20;100.00;99352.19;4945366;28;20821;-78
2023/01/18 12:15:41;;;;;;;6.65;4.60;;;;;;;2.24;100.00;99342.69;4941325;28;20043;-78
2023/01/18 12:18:30;;;;;;;7.53;5.40;;;;;;;2.25;100.00;99345.31;4962513;28;20051;-78
2023/01/18 12:21:09;;;;;;;9.00;5.20;;;;;;;2.26;100.00;99333.19;4917662;28;20050;-78
2023/01/18 12:23:42;;;;;;;8.93;4.65;;;;;;;2.26;100.00;99339.25;4934945;28;20055;-78